Terminal Aerodrome Forecast
Issued by NWS

Home | Current Version | Previous Version | Text Only | Print | Product List | Glossary On
Versions: 1 2 3 4 5 6 7 8 9 10 11 12 13 14 15 16 17 18 19 20 21 22
670
FTUS43 KSGF 241720
TAFJLN
TAF
KJLN 241720Z 2418/2518 24007KT P6SM FEW150
     FM250000 18004KT P6SM SCT250
     FM250200 12005KT P6SM SCT250
     FM250500 13005KT P6SM BKN250
     FM250800 20004KT P6SM BKN250 PROB30 2509/2510 4SM -TSRA
      OVC040CB
     FM251400 05004KT P6SM BKN150=

USA.gov is the U.S. government's official web portal to all federal, state and local government web resources and services.